Terminal Aerodrome Forecast
Issued by NWS

Home | Current Version | Previous Version | Text Only | Print | Product List | Glossary On
Versions: 1 2 3 4 5 6 7 8 9 10 11 12 13 14 15 16 17 18 19 20 21 22 23 24 25 26 27 28 29 30
000
FTUS42 KGSP 232335
TAFHKY
TAF
KHKY 232335Z 2400/2424 VRB03KT P6SM VCSH SCT050 BKN250
     FM240200 VRB02KT P6SM FEW050 BKN250
     FM240900 VRB02KT 4SM BR SCT250
     FM241300 VRB03KT P6SM FEW050 SCT250
     FM241700 22006KT P6SM SCT060=

USA.gov is the U.S. government's official web portal to all federal, state and local government web resources and services.